Key West Nas /Boca Chica Field/ Airport
KNQX : now visible

Airfield :











YOU CAN JOIN US ON...

 
LOGIN :

Register | Disclaimer

   EN    FR    IT 

 









Legend :    VFR   Marginal VFR   IFR   Intensive IFR   Very Intensive IFR
Visi :
Ceiling :
>= 8 km
>= 3000ft
5 to 8 km
1000 to 3000 ft
1500m to 5 km
500 to 1000 ft
800 to 1500m
200 to 500 ft
< 800m
< 200 ft
Symbols :   Thunderstorms  Fog  Heavy snow  Heavy precipitations  Wind > 20 kt







- Airport Elevation : 6 ft


KNQX - Key West Nas /Boca Chica Field/

CURRENT METAR :
  • 162017Z 08015KT 10SM FEW025 SCT090 BKN160 OVC250 29/23 A2997 RMK AO2 TSB1955E11 T2 SET T02890228

EXPIRED METARs :
  • 161953Z 07012KT 10SM TS SCT025CB SCT090 BKN150 29/24 A2999 RMK AO2 TSB07 SLP153 OCNL LTGCGIC OHD-NW TS OHD-NW MOV N T1 SET T02890239
  • 161913Z 07013KT 10SM TS SCT025CB SCT090 BKN150 29/24 A2999 RMK AO2 TSB07 OCNL LTGCGIC OHD TS NW-N MOV N T1 SET T02890239
  • 161853Z 10019KT 10SM SCT025CB SCT090 BKN150 29/24 A2998 RMK AO2 SLP151 CB NW-N MOV N T2 SET T02940244
  • 161753Z 12009KT 10SM FEW025 SCT090 BKN150 33/24 A3001 RMK AO2 SLP159 CB DSNT NW AND NE T2 SET T03280239 10333 20289 56007

TAF COR TAF KNQX
Valid from the 16 at 20:00 until the 17 at 15:00 UTC


1620/1715 12009KT 9999 VCTS SCT025CB SCT080 BKN150 QNH2990INS
TEMPO 1620/1623 07012G20KT 4800 TS SCT025CB SCT090 BKN150
FM162300 12012KT 9999 VCTS FEW010 SCT030CB BKN150 QNH2992INS
FM170600 09008KT 9999 VCSH SCT020 BKN150 QNH2990INS T33/1620Z T28/1709Z COR 2003 FN00204
KZMA FIR / North America



MET'MAP, your aeronautical weather chart ! - Copyright ORBIFLY December 2007 - Disclaimer

ORBIFLY MET'MAP TEAM :

Programming & Development : Alexandra Zaïnal
Concept & Development : Baudouin d'Aumeries
Co-Development & Prog : Marc-Olivier Méhu
Technical & hardware support : Manuel Goepfert

Contact : metmap@orbifly.com




SOURCES & CREDITS :

   NOAA       Earth
Advisory